Time;durP1;ratioP1;P1;durP2;ratioP2;P2;SDS_P1;SDS_P2;PMS_P1;PMS_P2;Temp;Humidity;BMP_temperature;BMP_pressure;BME280_temperature;BME280_humidity;BME280_pressure;Samples;Min_cycle;Max_cycle;Signal;HPM_P1;HPM_P2
2024/01/20 00:00:28;;;;;;;2.15;1.20;;;;;;;6.27;100.00;97349.97;5084433;28;20106;-75
2024/01/20 00:02:54;;;;;;;1.60;1.50;;;;;;;6.27;100.00;97343.78;5047123;28;20492;-74
2024/01/20 00:05:19;;;;;;;2.55;1.60;;;;;;;6.22;100.00;97341.34;5056909;28;20030;-77
2024/01/20 00:07:45;;;;;;;1.50;1.20;;;;;;;6.32;100.00;97339.09;5053578;28;20028;-76
2024/01/20 00:10:11;;;;;;;1.80;1.48;;;;;;;6.33;100.00;97335.53;5070890;28;20475;-76
2024/01/20 00:12:37;;;;;;;1.40;1.30;;;;;;;6.33;100.00;97339.06;5066831;28;20032;-76
2024/01/20 00:15:05;;;;;;;2.22;1.38;;;;;;;6.28;100.00;97332.22;5064357;28;20044;-76
2024/01/20 00:17:31;;;;;;;2.10;1.30;;;;;;;6.31;100.00;97340.91;5043727;28;20115;-76
2024/01/20 00:19:57;;;;;;;2.97;1.40;;;;;;;6.18;100.00;97315.91;5064018;28;20466;-76
2024/01/20 00:22:23;;;;;;;1.42;1.20;;;;;;;6.17;100.00;97330.09;5066168;28;20024;-76
2024/01/20 00:25:04;;;;;;;2.40;1.58;;;;;;;6.21;100.00;97341.44;5088864;27;20418;-76
2024/01/20 00:27:30;;;;;;;1.58;1.15;;;;;;;6.17;100.00;97348.69;5071828;28;20028;-76
2024/01/20 00:29:56;;;;;;;1.63;1.10;;;;;;;6.11;100.00;97340.16;5097045;28;20059;-75
2024/01/20 00:32:21;;;;;;;1.58;1.40;;;;;;;6.06;100.00;97340.34;5099874;28;20055;-74
2024/01/20 00:34:47;;;;;;;2.70;1.40;;;;;;;5.98;100.00;97330.09;5086994;28;20035;-75
2024/01/20 00:37:13;;;;;;;1.75;0.90;;;;;;;5.90;100.00;97356.16;5102808;28;20492;-75
2024/01/20 00:39:38;;;;;;;2.20;1.30;;;;;;;5.71;100.00;97368.50;5071310;28;20032;-75
2024/01/20 00:42:04;;;;;;;1.58;1.40;;;;;;;5.75;100.00;97383.34;5066936;28;20039;-77
2024/01/20 00:44:30;;;;;;;1.83;1.40;;;;;;;5.67;100.00;97380.19;5082996;28;20399;-76
2024/01/20 00:46:56;;;;;;;2.22;1.40;;;;;;;5.55;100.00;97390.50;5078340;28;20036;-76
2024/01/20 00:49:21;;;;;;;2.70;1.60;;;;;;;5.37;100.00;97390.38;5071855;28;20024;-75
2024/01/20 00:51:47;;;;;;;1.65;1.35;;;;;;;5.22;100.00;97414.03;5087440;28;20031;-75
2024/01/20 00:54:13;;;;;;;2.45;1.70;;;;;;;5.04;100.00;97410.41;5098837;28;20468;-76
2024/01/20 00:56:38;;;;;;;3.15;1.50;;;;;;;5.05;100.00;97416.53;5105579;28;20055;-77
2024/01/20 00:59:04;;;;;;;2.17;1.33;;;;;;;4.93;100.00;97429.38;5073006;28;20024;-76
2024/01/20 01:01:29;;;;;;;2.42;1.70;;;;;;;4.84;100.00;97424.47;5093184;28;20451;-75
2024/01/20 01:03:55;;;;;;;3.13;1.95;;;;;;;4.95;100.00;97441.72;5080010;28;20020;-75
2024/01/20 01:06:21;;;;;;;3.33;2.17;;;;;;;4.97;100.00;97446.03;5076324;28;20088;-76
2024/01/20 01:08:46;;;;;;;2.25;1.52;;;;;;;4.91;100.00;97460.41;5096552;28;20028;-75
2024/01/20 01:11:12;;;;;;;2.17;1.63;;;;;;;4.87;100.00;97477.34;5094925;28;20101;-76
2024/01/20 01:13:39;;;;;;;1.80;1.63;;;;;;;4.59;100.00;97481.13;5069906;28;20397;-77
2024/01/20 01:16:05;;;;;;;1.63;1.23;;;;;;;4.54;100.00;97464.56;5081625;28;20035;-77
2024/01/20 01:18:32;;;;;;;1.73;1.35;;;;;;;4.49;100.00;97459.44;5074030;28;20032;-76
2024/01/20 01:20:57;;;;;;;2.45;1.70;;;;;;;4.36;100.00;97445.84;5087675;28;20032;-76
2024/01/20 01:23:23;;;;;;;2.03;1.75;;;;;;;4.46;100.00;97461.38;5088222;28;20055;-76
2024/01/20 01:25:49;;;;;;;1.85;1.60;;;;;;;4.35;100.00;97472.38;5079859;28;20025;-76
2024/01/20 01:28:15;;;;;;;1.95;1.60;;;;;;;4.25;100.00;97471.00;5098722;28;20514;-76
2024/01/20 01:30:40;;;;;;;1.60;1.50;;;;;;;4.22;100.00;97476.41;5081040;28;20056;-77
2024/01/20 01:33:06;;;;;;;2.05;1.60;;;;;;;4.20;100.00;97481.78;5085997;28;20186;-77
2024/01/20 01:35:31;;;;;;;1.65;1.35;;;;;;;4.14;100.00;97470.56;5074180;28;20024;-76
2024/01/20 01:37:58;;;;;;;1.95;1.20;;;;;;;4.27;100.00;97454.16;5075220;28;20039;-76
2024/01/20 01:40:27;;;;;;;1.67;1.42;;;;;;;4.31;100.00;97476.06;5081129;28;20407;-77
2024/01/20 01:42:57;;;;;;;2.63;1.67;;;;;;;4.39;100.00;97479.28;5057449;28;20040;-77
2024/01/20 01:45:23;;;;;;;2.83;1.90;;;;;;;4.36;100.00;97497.94;5075214;28;20368;-77
2024/01/20 01:47:53;;;;;;;3.33;1.90;;;;;;;4.33;100.00;97484.81;5066767;28;20038;-77
2024/01/20 01:50:19;;;;;;;2.25;1.85;;;;;;;4.24;100.00;97464.00;5068216;28;20114;-77
2024/01/20 01:52:47;;;;;;;2.80;2.10;;;;;;;4.35;100.00;97478.53;5068538;28;20068;-77
2024/01/20 01:55:14;;;;;;;2.85;2.00;;;;;;;4.38;100.00;97482.84;5059958;28;20027;-78
2024/01/20 01:57:41;;;;;;;3.00;1.75;;;;;;;4.37;100.00;97491.69;5067722;28;20024;-78
2024/01/20 02:00:08;;;;;;;2.85;1.70;;;;;;;4.25;100.00;97489.53;5072040;28;20111;-79
2024/01/20 02:02:34;;;;;;;2.13;1.80;;;;;;;4.26;100.00;97473.59;5055149;28;20482;-78
2024/01/20 02:04:59;;;;;;;2.38;1.60;;;;;;;4.27;100.00;97469.16;5054876;28;20119;-79
2024/01/20 02:07:25;;;;;;;2.72;1.95;;;;;;;4.25;100.00;97479.81;5078737;28;20051;-79
2024/01/20 02:09:51;;;;;;;1.75;1.40;;;;;;;4.26;100.00;97462.16;5076817;28;20435;-79
2024/01/20 02:12:17;;;;;;;1.90;1.58;;;;;;;4.13;100.00;97460.88;5063187;28;20060;-79
2024/01/20 02:14:43;;;;;;;2.05;1.63;;;;;;;4.11;100.00;97460.94;5054972;28;20119;-79
2024/01/20 02:17:08;;;;;;;2.53;1.67;;;;;;;3.95;100.00;97472.16;5067530;28;20034;-78
2024/01/20 02:19:39;;;;;;;1.77;1.50;;;;;;;3.98;100.00;97485.28;5074884;28;20032;-78
2024/01/20 02:22:09;;;;;;;2.53;1.77;;;;;;;3.99;100.00;97490.53;5056082;28;20028;-78
2024/01/20 02:24:36;;;;;;;2.95;1.90;;;;;;;3.85;100.00;97479.56;5063306;28;20057;-79
2024/01/20 02:27:02;;;;;;;4.32;1.63;;;;;;;3.78;100.00;97470.97;5055621;28;20094;-77
2024/01/20 02:29:27;;;;;;;3.47;1.65;;;;;;;3.79;100.00;97470.06;5055372;28;20024;-78
2024/01/20 02:31:53;;;;;;;1.98;1.45;;;;;;;3.72;100.00;97476.50;5064747;28;20108;-78
2024/01/20 02:34:19;;;;;;;2.60;1.55;;;;;;;3.71;100.00;97479.22;5065300;28;20103;-78
2024/01/20 02:36:45;;;;;;;2.03;1.77;;;;;;;3.63;100.00;97494.50;5078924;28;20035;-78
2024/01/20 02:39:10;;;;;;;3.13;2.03;;;;;;;3.60;100.00;97498.09;5059278;28;20495;-79
2024/01/20 02:41:38;;;;;;;2.63;1.70;;;;;;;3.64;100.00;97506.78;5058097;28;20035;-79
2024/01/20 02:44:08;;;;;;;2.03;1.50;;;;;;;3.56;100.00;97528.22;5066725;28;20055;-78
2024/01/20 02:46:34;;;;;;;2.47;1.33;;;;;;;3.45;100.00;97522.41;5090810;28;20503;-78
2024/01/20 02:48:59;;;;;;;2.38;1.40;;;;;;;3.45;100.00;97517.13;5055583;28;20115;-79
2024/01/20 02:51:25;;;;;;;3.55;1.42;;;;;;;3.41;100.00;97499.69;5063892;28;20395;-79
2024/01/20 02:53:50;;;;;;;1.70;1.30;;;;;;;3.32;100.00;97504.41;5062758;28;20044;-79
2024/01/20 02:56:16;;;;;;;1.70;1.40;;;;;;;3.25;100.00;97514.31;5074399;28;20483;-79
2024/01/20 02:58:42;;;;;;;1.50;1.30;;;;;;;3.32;100.00;97517.63;5065403;28;20035;-78
2024/01/20 03:01:07;;;;;;;1.40;1.30;;;;;;;3.29;100.00;97514.16;5077683;28;20028;-78
2024/01/20 03:03:33;;;;;;;1.63;1.40;;;;;;;3.15;100.00;97520.81;5070861;28;20020;-79
2024/01/20 03:05:58;;;;;;;1.77;1.55;;;;;;;3.11;100.00;97520.03;5064745;28;20024;-79
2024/01/20 03:08:24;;;;;;;2.33;1.70;;;;;;;3.18;100.00;97544.50;5072910;28;20717;-79
2024/01/20 03:10:50;;;;;;;2.42;1.52;;;;;;;3.20;100.00;97556.75;5072457;28;20020;-78
2024/01/20 03:13:15;;;;;;;1.80;1.45;;;;;;;3.19;100.00;97548.88;5073995;28;20395;-79
2024/01/20 03:15:41;;;;;;;1.60;1.40;;;;;;;3.21;100.00;97525.91;5082536;28;20035;-78
2024/01/20 03:18:07;;;;;;;1.80;1.33;;;;;;;3.18;100.00;97541.84;5072462;28;20031;-78
2024/01/20 03:20:32;;;;;;;2.65;1.50;;;;;;;3.16;100.00;97572.75;5060023;28;20021;-78
2024/01/20 03:22:58;;;;;;;2.03;1.10;;;;;;;3.08;100.00;97558.91;5063429;28;20040;-78
2024/01/20 03:25:24;;;;;;;2.47;1.60;;;;;;;2.99;100.00;97561.84;5073834;28;20030;-78
2024/01/20 03:27:52;;;;;;;1.98;1.52;;;;;;;2.98;100.00;97583.91;5066758;28;20022;-78
2024/01/20 03:30:18;;;;;;;2.10;1.40;;;;;;;2.99;100.00;97588.25;5090426;28;20470;-78
2024/01/20 03:32:44;;;;;;;2.90;1.20;;;;;;;2.91;100.00;97599.09;5066831;28;20024;-78
2024/01/20 03:35:09;;;;;;;1.20;1.10;;;;;;;2.79;100.00;97591.53;5071654;28;20028;-78
2024/01/20 03:37:35;;;;;;;1.92;1.35;;;;;;;2.89;100.00;97594.78;5083473;28;20040;-78
2024/01/20 03:40:01;;;;;;;1.30;1.20;;;;;;;2.87;100.00;97591.28;5070466;28;20031;-78
2024/01/20 03:42:28;;;;;;;1.63;1.17;;;;;;;2.82;100.00;97587.94;5067891;28;20021;-79
2024/01/20 03:44:54;;;;;;;2.70;1.35;;;;;;;2.92;100.00;97594.69;5070759;28;20023;-79
2024/01/20 03:47:20;;;;;;;1.75;1.17;;;;;;;2.92;100.00;97605.25;5053633;28;20074;-79
2024/01/20 03:49:45;;;;;;;1.15;1.08;;;;;;;2.88;100.00;97606.22;5053216;28;20037;-79
2024/01/20 03:52:11;;;;;;;1.30;1.20;;;;;;;2.81;100.00;97599.41;5069617;28;20506;-79
2024/01/20 03:54:37;;;;;;;1.58;1.20;;;;;;;2.78;100.00;97599.50;5083253;28;20476;-78
2024/01/20 03:57:02;;;;;;;1.90;1.50;;;;;;;2.78;100.00;97610.94;5057609;28;20032;-79
2024/01/20 03:59:28;;;;;;;1.83;1.40;;;;;;;2.78;100.00;97617.97;5052875;28;20032;-79
2024/01/20 04:01:54;;;;;;;4.72;2.67;;;;;;;2.65;100.00;97620.13;5061245;28;20174;-79
2024/01/20 04:04:20;;;;;;;7.32;2.85;;;;;;;2.59;100.00;97623.81;5071083;28;20017;-71
2024/01/20 04:06:45;;;;;;;4.38;1.92;;;;;;;2.56;100.00;97623.91;5060696;28;20077;-75
2024/01/20 04:09:11;;;;;;;7.65;2.88;;;;;;;2.54;100.00;97632.78;5079213;28;20090;-75
2024/01/20 04:11:37;;;;;;;5.50;2.30;;;;;;;2.60;100.00;97641.41;5054626;28;20036;-74
2024/01/20 04:14:03;;;;;;;2.72;1.42;;;;;;;2.45;100.00;97628.63;5081885;28;20411;-75
2024/01/20 04:16:30;;;;;;;2.90;1.60;;;;;;;2.47;100.00;97637.38;5088784;28;20024;-75
2024/01/20 04:18:55;;;;;;;2.78;1.30;;;;;;;2.60;100.00;97648.44;5088661;28;20050;-75
2024/01/20 04:21:22;;;;;;;2.70;1.35;;;;;;;2.54;100.00;97654.78;5072343;28;20515;-74
2024/01/20 04:23:49;;;;;;;1.27;1.17;;;;;;;2.52;100.00;97656.56;5055502;28;20039;-74
2024/01/20 04:26:15;;;;;;;0.70;0.70;;;;;;;2.32;100.00;97637.81;5055364;28;20423;-79
2024/01/20 04:28:40;;;;;;;0.80;0.80;;;;;;;2.19;100.00;97633.75;5074096;28;20028;-78
2024/01/20 04:31:06;;;;;;;0.80;0.80;;;;;;;2.11;100.00;97633.13;5093045;28;20040;-79
2024/01/20 04:33:34;;;;;;;0.95;0.90;;;;;;;2.27;100.00;97652.03;5096698;28;20024;-79
2024/01/20 04:36:00;;;;;;;1.02;0.93;;;;;;;2.03;100.00;97635.13;5100055;28;20118;-78
2024/01/20 04:38:26;;;;;;;1.48;0.75;;;;;;;2.01;100.00;97663.28;5095546;28;20460;-78
2024/01/20 04:40:53;;;;;;;0.80;0.80;;;;;;;1.94;100.00;97656.47;5078016;28;20491;-78
2024/01/20 04:43:19;;;;;;;1.10;0.90;;;;;;;2.08;100.00;97664.88;5073354;28;20020;-79
2024/01/20 04:45:45;;;;;;;1.10;0.73;;;;;;;2.06;100.00;97682.50;5083176;28;20116;-79
2024/01/20 04:48:10;;;;;;;1.08;0.90;;;;;;;2.04;100.00;97689.56;5084217;28;20029;-78
2024/01/20 04:50:36;;;;;;;2.03;1.10;;;;;;;1.95;100.00;97674.00;5078290;28;20020;-78
2024/01/20 04:53:02;;;;;;;1.45;0.85;;;;;;;2.03;100.00;97687.88;5096180;28;20093;-78
2024/01/20 04:55:27;;;;;;;0.77;0.77;;;;;;;1.91;100.00;97693.44;5099730;28;20048;-78
2024/01/20 04:57:53;;;;;;;0.70;0.70;;;;;;;1.74;100.00;97680.69;5103347;28;20036;-79
2024/01/20 05:00:19;;;;;;;0.68;0.68;;;;;;;1.75;100.00;97679.78;5105784;28;20028;-78
2024/01/20 05:02:44;;;;;;;0.70;0.70;;;;;;;1.69;100.00;97700.16;5103901;28;20024;-78
2024/01/20 05:05:10;;;;;;;0.57;0.57;;;;;;;1.76;100.00;97701.72;5103803;28;20027;-78
2024/01/20 05:07:36;;;;;;;0.43;0.43;;;;;;;1.90;100.00;97728.63;5105518;28;20169;-78
2024/01/20 05:10:01;;;;;;;0.60;0.60;;;;;;;1.85;100.00;97725.22;5104244;28;20022;-77
2024/01/20 05:12:28;;;;;;;0.60;0.60;;;;;;;1.78;100.00;97728.94;5081524;28;20142;-77
2024/01/20 05:14:55;;;;;;;0.50;0.50;;;;;;;1.80;100.00;97732.41;5089071;28;20479;-76
2024/01/20 05:17:20;;;;;;;1.25;0.70;;;;;;;1.84;100.00;97736.69;5092655;28;20031;-75
2024/01/20 05:19:46;;;;;;;0.47;0.47;;;;;;;1.84;100.00;97737.56;5075920;28;20031;-77
2024/01/20 05:22:11;;;;;;;0.47;0.47;;;;;;;1.77;100.00;97741.25;5084126;28;20491;-75
2024/01/20 05:24:37;;;;;;;0.50;0.50;;;;;;;1.67;100.00;97739.72;5055575;28;20071;-77
2024/01/20 05:27:03;;;;;;;0.45;0.40;;;;;;;1.68;100.00;97743.25;5072392;28;20484;-75
2024/01/20 05:29:28;;;;;;;0.50;0.50;;;;;;;1.61;100.00;97746.03;5089237;28;20073;-76
2024/01/20 05:31:54;;;;;;;0.57;0.55;;;;;;;1.66;100.00;97737.16;5080945;28;20059;-76
2024/01/20 05:34:20;;;;;;;0.55;0.55;;;;;;;1.63;100.00;97753.91;5064825;28;20055;-76
2024/01/20 05:36:45;;;;;;;1.23;0.85;;;;;;;1.55;100.00;97748.81;5075466;28;20028;-76
2024/01/20 05:39:11;;;;;;;1.10;0.82;;;;;;;1.56;100.00;97745.28;5092368;28;20060;-76
2024/01/20 05:41:36;;;;;;;0.60;0.60;;;;;;;1.57;100.00;97741.72;5088974;28;20024;-76
2024/01/20 05:44:02;;;;;;;2.17;0.90;;;;;;;1.64;100.00;97764.41;5087298;28;20028;-76
2024/01/20 05:46:28;;;;;;;0.68;0.68;;;;;;;1.67;100.00;97770.50;5073561;28;20478;-76
2024/01/20 05:48:54;;;;;;;0.70;0.65;;;;;;;1.64;100.00;97763.53;5072207;28;20103;-75
2024/01/20 05:51:19;;;;;;;1.33;0.70;;;;;;;1.59;100.00;97770.69;5055109;28;20028;-76
2024/01/20 05:53:45;;;;;;;0.93;0.90;;;;;;;1.54;100.00;97768.13;5055443;28;20542;-77
2024/01/20 05:56:11;;;;;;;2.53;1.50;;;;;;;1.64;100.00;97774.94;5055050;28;20060;-76
2024/01/20 05:58:37;;;;;;;2.60;1.33;;;;;;;1.61;100.00;97782.94;5071771;28;20082;-75
2024/01/20 06:01:03;;;;;;;5.68;2.15;;;;;;;1.68;100.00;97795.97;5078404;28;20085;-76
2024/01/20 06:03:28;;;;;;;2.00;1.30;;;;;;;1.66;100.00;97784.59;5073603;28;20467;-75
2024/01/20 06:05:54;;;;;;;3.13;1.60;;;;;;;1.77;100.00;97795.75;5071914;28;20032;-76
2024/01/20 06:08:20;;;;;;;4.03;1.85;;;;;;;1.71;100.00;97782.72;5080165;28;20499;-77
2024/01/20 06:10:46;;;;;;;5.45;2.30;;;;;;;1.74;100.00;97796.69;5079797;28;20028;-77
2024/01/20 06:13:11;;;;;;;4.47;2.58;;;;;;;1.95;100.00;97805.88;5070357;28;20082;-76
2024/01/20 06:15:37;;;;;;;4.40;2.08;;;;;;;1.82;100.00;97796.50;5089354;28;20495;-77
2024/01/20 06:18:03;;;;;;;2.78;1.50;;;;;;;1.71;100.00;97793.25;5077677;28;20035;-76
2024/01/20 06:20:29;;;;;;;3.78;1.80;;;;;;;1.76;100.00;97812.47;5082123;28;20033;-76
2024/01/20 06:22:55;;;;;;;4.20;2.00;;;;;;;1.76;100.00;97807.19;5062886;28;20043;-76
2024/01/20 06:25:20;;;;;;;2.30;1.40;;;;;;;1.76;100.00;97815.97;5071550;28;20029;-76
2024/01/20 06:27:46;;;;;;;3.38;1.42;;;;;;;1.78;100.00;97823.88;5071204;28;20032;-76
2024/01/20 06:30:12;;;;;;;2.22;1.30;;;;;;;1.75;100.00;97826.56;5086412;28;20043;-75
2024/01/20 06:32:38;;;;;;;1.40;1.30;;;;;;;1.76;100.00;97838.81;5091269;28;20507;-77
2024/01/20 06:35:04;;;;;;;2.75;1.95;;;;;;;1.78;100.00;97837.03;5091497;28;20028;-76
2024/01/20 06:37:30;;;;;;;20.40;10.40;;;;;;;1.84;100.00;97850.09;5057008;28;20036;-77
2024/01/20 06:39:55;;;;;;;93.78;41.40;;;;;;;1.78;100.00;97850.22;5072264;28;20452;-76
2024/01/20 06:42:21;;;;;;;5.03;3.05;;;;;;;1.80;100.00;97848.41;5071385;28;20365;-76
2024/01/20 06:44:47;;;;;;;12.60;5.80;;;;;;;1.79;100.00;97860.72;5073528;28;20165;-76
2024/01/20 06:47:12;;;;;;;2.20;1.30;;;;;;;1.73;100.00;97852.06;5074429;28;20031;-76
2024/01/20 06:49:42;;;;;;;11.85;6.05;;;;;;;1.78;100.00;97856.38;5057395;28;20507;-76
2024/01/20 06:52:07;;;;;;;0.30;0.30;;;;;;;1.77;100.00;97865.16;5085637;28;20032;-77
2024/01/20 06:54:33;;;;;;;0.60;0.60;;;;;;;1.73;100.00;97862.63;5054867;28;20021;-75
2024/01/20 06:56:58;;;;;;;0.50;0.50;;;;;;;1.74;100.00;97869.66;5061811;28;20123;-76
2024/01/20 06:59:24;;;;;;;1.48;1.38;;;;;;;1.67;100.00;97873.31;5062596;28;20036;-78
2024/01/20 07:01:50;;;;;;;0.10;0.10;;;;;;;1.72;100.00;97888.16;5062573;28;20040;-79
2024/01/20 07:04:16;;;;;;;0.20;0.20;;;;;;;1.72;100.00;97888.16;5079196;28;20028;-75
2024/01/20 07:06:41;;;;;;;0.30;0.30;;;;;;;1.57;100.00;97883.19;5053653;28;20123;-76
2024/01/20 07:09:07;;;;;;;0.20;0.20;;;;;;;1.60;100.00;97883.09;5067652;28;20058;-78
2024/01/20 07:11:32;;;;;;;4.25;2.45;;;;;;;1.61;100.00;97880.47;5083130;28;20471;-78
2024/01/20 07:13:58;;;;;;;3.75;2.50;;;;;;;1.72;100.00;97887.28;5068450;28;20419;-77
2024/01/20 07:16:24;;;;;;;0.90;0.88;;;;;;;1.77;100.00;97894.19;5058104;28;20039;-76
2024/01/20 07:18:49;;;;;;;0.93;0.93;;;;;;;1.82;100.00;97899.34;5061004;28;20036;-76
2024/01/20 07:21:15;;;;;;;3.30;0.82;;;;;;;1.81;100.00;97908.16;5077986;28;20032;-77
2024/01/20 07:23:41;;;;;;;0.45;0.45;;;;;;;1.96;100.00;97913.97;5066971;28;20404;-78
2024/01/20 07:26:07;;;;;;;1.52;1.42;;;;;;;1.85;100.00;97901.91;5062578;28;20040;-77
2024/01/20 07:28:32;;;;;;;0.40;0.40;;;;;;;1.84;100.00;97900.19;5068258;28;20114;-78
2024/01/20 07:30:58;;;;;;;0.25;0.25;;;;;;;1.92;100.00;97917.56;5061034;28;20056;-77
2024/01/20 07:33:24;;;;;;;0.30;0.30;;;;;;;1.92;100.00;97911.44;5065204;28;20533;-78
2024/01/20 07:35:52;;;;;;;0.85;0.85;;;;;;;1.91;100.00;97920.22;5068407;28;20028;-77
2024/01/20 07:38:17;;;;;;;0.40;0.40;;;;;;;1.93;100.00;97935.16;5056767;28;20031;-77
2024/01/20 07:40:43;;;;;;;0.20;0.20;;;;;;;1.99;100.00;97939.41;5063146;28;20032;-78
2024/01/20 07:43:09;;;;;;;0.17;0.17;;;;;;;1.94;100.00;97926.31;5064451;28;20460;-76
2024/01/20 07:45:34;;;;;;;0.50;0.50;;;;;;;1.88;100.00;97928.22;5056546;28;20499;-77
2024/01/20 07:48:00;;;;;;;0.40;0.40;;;;;;;2.05;100.00;97942.78;5077086;28;20069;-78
2024/01/20 07:50:26;;;;;;;0.30;0.30;;;;;;;1.88;100.00;97931.72;5060796;28;20032;-78
2024/01/20 07:52:52;;;;;;;0.20;0.20;;;;;;;1.84;100.00;97937.09;5068741;28;20419;-75
2024/01/20 07:55:18;;;;;;;0.30;0.30;;;;;;;1.77;100.00;97932.84;5052100;28;20040;-80
2024/01/20 07:57:44;;;;;;;0.52;0.52;;;;;;;1.83;100.00;97932.72;5067563;28;20059;-77
2024/01/20 08:00:13;;;;;;;0.20;0.20;;;;;;;1.98;100.00;97943.81;5059165;28;20029;-78
2024/01/20 08:02:39;;;;;;;0.30;0.30;;;;;;;2.00;100.00;97949.06;5058114;28;20082;-78
2024/01/20 08:05:05;;;;;;;0.28;0.28;;;;;;;2.02;100.00;97952.53;5079190;28;20480;-78
2024/01/20 08:07:34;;;;;;;0.20;0.20;;;;;;;1.95;100.00;97966.75;5059188;28;20029;-78
2024/01/20 08:09:59;;;;;;;0.20;0.20;;;;;;;1.92;100.00;97969.44;5050382;28;20495;-78
2024/01/20 08:12:25;;;;;;;0.70;0.70;;;;;;;1.95;100.00;97970.25;5059381;28;20028;-76
2024/01/20 08:14:51;;;;;;;0.28;0.28;;;;;;;2.03;100.00;97973.59;5059859;28;20021;-78
2024/01/20 08:17:17;;;;;;;0.30;0.30;;;;;;;2.05;100.00;97982.34;5078573;28;20507;-78
2024/01/20 08:19:43;;;;;;;1.75;1.13;;;;;;;1.93;100.00;97992.28;5086638;28;20028;-78
2024/01/20 08:22:08;;;;;;;0.40;0.40;;;;;;;1.89;100.00;97967.75;5068098;28;20069;-78
2024/01/20 08:24:34;;;;;;;0.20;0.20;;;;;;;2.06;100.00;97984.06;5087625;28;20093;-76
2024/01/20 08:26:59;;;;;;;0.40;0.40;;;;;;;1.92;100.00;97995.81;5062309;28;20035;-77
2024/01/20 08:29:25;;;;;;;0.28;0.28;;;;;;;1.82;100.00;97994.25;5060974;28;20032;-77
2024/01/20 08:31:51;;;;;;;0.20;0.20;;;;;;;1.88;100.00;97986.22;5077472;28;20029;-77
2024/01/20 08:34:17;;;;;;;1.17;0.85;;;;;;;1.99;100.00;97987.75;5068441;28;20081;-77
2024/01/20 08:36:43;;;;;;;0.45;0.45;;;;;;;2.05;100.00;97994.69;5064024;28;20061;-77
2024/01/20 08:39:08;;;;;;;0.65;0.65;;;;;;;2.13;100.00;98008.56;5063283;28;20036;-78
2024/01/20 08:41:34;;;;;;;0.40;0.40;;;;;;;2.15;100.00;98020.81;5077749;28;20020;-79
2024/01/20 08:43:59;;;;;;;0.20;0.20;;;;;;;2.12;100.00;98007.69;5080966;28;20043;-80
2024/01/20 08:46:25;;;;;;;2.70;1.35;;;;;;;2.22;100.00;98026.81;5058402;28;20525;-78
2024/01/20 08:48:52;;;;;;;0.20;0.20;;;;;;;2.22;100.00;98041.78;5066986;28;20021;-78
2024/01/20 08:51:19;;;;;;;2.15;2.05;;;;;;;2.09;100.00;98033.28;5076259;28;20047;-77
2024/01/20 08:53:45;;;;;;;0.63;0.63;;;;;;;2.07;100.00;98033.31;5077093;28;20048;-76
2024/01/20 08:56:10;;;;;;;0.90;0.90;;;;;;;2.11;100.00;98039.38;5078029;28;20506;-77
2024/01/20 08:58:36;;;;;;;0.43;0.43;;;;;;;2.13;100.00;98021.75;5060965;28;20024;-76
2024/01/20 09:01:01;;;;;;;0.43;0.43;;;;;;;2.31;100.00;98021.34;5058563;28;20031;-78
2024/01/20 09:03:27;;;;;;;0.30;0.30;;;;;;;2.35;100.00;98043.28;5066053;28;20392;-78
2024/01/20 09:05:53;;;;;;;0.57;0.57;;;;;;;2.32;100.00;98036.28;5068733;28;20036;-77
2024/01/20 09:08:18;;;;;;;0.43;0.43;;;;;;;2.26;100.00;98043.47;5068774;28;20203;-73
2024/01/20 09:10:44;;;;;;;0.30;0.30;;;;;;;2.33;100.00;98045.97;5088881;28;20032;-77
2024/01/20 09:13:09;;;;;;;1.88;1.77;;;;;;;2.37;100.00;98062.59;5061674;28;20028;-79
2024/01/20 09:15:35;;;;;;;3.10;2.38;;;;;;;2.37;100.00;98052.06;5080581;28;20032;-78
2024/01/20 09:18:01;;;;;;;2.80;1.58;;;;;;;2.30;100.00;98061.00;5067607;28;20028;-76
2024/01/20 09:20:27;;;;;;;0.65;0.65;;;;;;;2.02;100.00;98051.00;5064271;28;20209;-78
2024/01/20 09:22:52;;;;;;;0.20;0.20;;;;;;;2.06;100.00;98062.38;5065882;28;20042;-76
2024/01/20 09:25:18;;;;;;;0.55;0.55;;;;;;;2.03;100.00;98057.16;5087657;28;20035;-73
2024/01/20 09:27:44;;;;;;;0.50;0.50;;;;;;;2.14;100.00;98069.22;5072744;28;22262;-76
2024/01/20 09:30:10;;;;;;;0.90;0.90;;;;;;;2.23;100.00;98057.59;5088801;28;20471;-73
2024/01/20 09:32:35;;;;;;;0.60;0.60;;;;;;;2.23;100.00;98065.53;5089139;28;20035;-73
2024/01/20 09:35:02;;;;;;;0.85;0.32;;;;;;;2.15;100.00;98070.09;5072380;28;20552;-72
2024/01/20 09:37:29;;;;;;;0.98;0.98;;;;;;;2.21;100.00;98082.28;5089303;28;20066;-75
2024/01/20 09:39:55;;;;;;;9.43;2.17;;;;;;;2.19;100.00;98080.53;5078776;28;20067;-76
2024/01/20 09:42:21;;;;;;;0.90;0.52;;;;;;;2.08;100.00;98082.53;5069061;28;20031;-77
2024/01/20 09:44:47;;;;;;;0.60;0.60;;;;;;;1.93;100.00;98074.06;5068889;28;20020;-75
2024/01/20 09:47:13;;;;;;;0.20;0.20;;;;;;;1.89;100.00;98085.56;5064832;28;20502;-75
2024/01/20 09:49:38;;;;;;;0.80;0.80;;;;;;;1.97;100.00;98081.88;5064740;28;20572;-74
2024/01/20 09:52:09;;;;;;;0.65;0.65;;;;;;;1.99;100.00;98092.41;5080983;28;20024;-76
2024/01/20 09:54:38;;;;;;;0.80;0.80;;;;;;;1.90;100.00;98085.53;5082190;28;20032;-76
2024/01/20 09:57:04;;;;;;;0.57;0.57;;;;;;;1.89;100.00;98075.88;5070174;28;20025;-78
2024/01/20 09:59:31;;;;;;;0.30;0.30;;;;;;;1.89;100.00;98073.25;5063809;28;20411;-77
2024/01/20 10:01:57;;;;;;;0.50;0.35;;;;;;;1.75;100.00;98061.22;5058000;28;20020;-79
2024/01/20 10:04:24;;;;;;;0.40;0.40;;;;;;;1.82;100.00;98068.97;5078564;28;20035;-76
2024/01/20 10:06:51;;;;;;;0.22;0.22;;;;;;;1.80;100.00;98067.28;5063186;28;20020;-77
2024/01/20 10:09:17;;;;;;;0.30;0.30;;;;;;;1.83;100.00;98088.31;5068208;28;20089;-76
2024/01/20 10:11:42;;;;;;;0.40;0.40;;;;;;;1.74;100.00;98089.34;5086379;28;20032;-76
2024/01/20 10:14:08;;;;;;;0.30;0.30;;;;;;;1.91;100.00;98086.38;5061644;28;20024;-77
2024/01/20 10:16:39;;;;;;;0.40;0.40;;;;;;;1.91;100.00;98092.53;5065379;28;20111;-76
2024/01/20 10:19:04;;;;;;;0.43;0.43;;;;;;;1.79;100.00;98091.88;5068119;28;20031;-76
2024/01/20 10:21:38;;;;;;;0.40;0.40;;;;;;;1.72;100.00;98095.56;5069126;28;20115;-77
2024/01/20 10:24:04;;;;;;;0.82;0.63;;;;;;;1.67;100.00;98098.25;5087210;28;20044;-77
2024/01/20 10:26:29;;;;;;;0.65;0.65;;;;;;;1.54;100.00;98081.78;5052581;28;20032;-77
2024/01/20 10:28:55;;;;;;;0.68;0.63;;;;;;;1.62;100.00;98092.22;5073591;28;21371;-77
2024/01/20 10:31:21;;;;;;;0.50;0.50;;;;;;;1.76;100.00;98103.38;5066459;28;20032;-78
2024/01/20 10:33:48;;;;;;;0.55;0.55;;;;;;;1.75;100.00;98100.78;5075985;28;20024;-77
2024/01/20 10:36:16;;;;;;;0.85;0.85;;;;;;;1.78;100.00;98100.72;5062874;28;20543;-76
2024/01/20 10:38:46;;;;;;;1.55;0.93;;;;;;;1.72;100.00;98090.28;5065590;28;20026;-77
2024/01/20 10:41:13;;;;;;;1.17;0.95;;;;;;;1.63;100.00;98084.25;5085004;28;20051;-76
2024/01/20 10:43:44;;;;;;;0.98;0.93;;;;;;;1.63;100.00;98099.25;5078043;28;20030;-76
2024/01/20 10:46:22;;;;;;;29.65;2.60;;;;;;;1.60;100.00;98094.88;5076831;28;20100;-76
2024/01/20 10:48:52;;;;;;;1.05;1.05;;;;;;;1.72;100.00;98103.47;5054949;28;20052;-76
2024/01/20 10:51:25;;;;;;;2.55;1.90;;;;;;;1.48;100.00;98097.72;5065390;28;20028;-72
2024/01/20 10:53:51;;;;;;;1.48;0.80;;;;;;;1.59;100.00;98103.69;5085531;28;20020;-77
2024/01/20 10:56:17;;;;;;;0.90;0.82;;;;;;;1.54;100.00;98097.59;5061958;28;20020;-77
2024/01/20 10:58:48;;;;;;;7.32;1.67;;;;;;;1.53;100.00;98101.16;5062631;28;20169;-77
2024/01/20 11:01:14;;;;;;;0.70;0.70;;;;;;;1.53;100.00;98098.53;5062596;28;20042;-77
2024/01/20 11:03:40;;;;;;;0.80;0.70;;;;;;;1.57;100.00;98100.19;5082202;28;20492;-77
2024/01/20 11:06:06;;;;;;;0.88;0.88;;;;;;;1.71;100.00;98105.22;5062383;28;20211;-76
2024/01/20 11:08:31;;;;;;;1.35;1.05;;;;;;;1.70;100.00;98099.97;5053162;28;20089;-78
2024/01/20 11:10:57;;;;;;;0.88;0.88;;;;;;;1.72;100.00;98111.38;5056135;28;20055;-76
2024/01/20 11:13:25;;;;;;;1.20;1.10;;;;;;;1.57;100.00;98107.22;5083550;28;20024;-77
2024/01/20 11:15:51;;;;;;;3.00;0.52;;;;;;;1.58;100.00;98101.94;5082170;28;20054;-77
2024/01/20 11:18:25;;;;;;;0.90;0.90;;;;;;;1.64;100.00;98107.09;5070854;28;20479;-77
2024/01/20 11:21:03;;;;;;;0.57;0.55;;;;;;;1.63;100.00;98105.34;5055957;28;20030;-76
2024/01/20 11:23:29;;;;;;;0.47;0.47;;;;;;;1.58;100.00;98090.53;5074440;28;20401;-78
2024/01/20 11:25:56;;;;;;;0.30;0.30;;;;;;;1.51;100.00;98092.38;5060971;28;20510;-77
2024/01/20 11:28:30;;;;;;;0.90;0.82;;;;;;;1.55;100.00;98111.66;5069054;28;20050;-72